Time;durP1;ratioP1;P1;durP2;ratioP2;P2;SDS_P1;SDS_P2;PMS_P1;PMS_P2;Temp;Humidity;BMP_temperature;BMP_pressure;BME280_temperature;BME280_humidity;BME280_pressure;Samples;Min_cycle;Max_cycle;Signal;HPM_P1;HPM_P2
2023/03/19 00:01:56;;;;;;;15.33;11.37;;;11.30;99.90;;;;;;4989111;28;20219;-70
2023/03/19 00:04:23;;;;;;;16.87;11.03;;;11.30;99.90;;;;;;4989925;28;20199;-69
2023/03/19 00:06:49;;;;;;;17.50;12.60;;;11.30;99.90;;;;;;4989355;28;20202;-70
2023/03/19 00:09:14;;;;;;;20.10;13.47;;;11.20;99.90;;;;;;4990301;28;20560;-68
2023/03/19 00:11:40;;;;;;;14.07;10.37;;;11.20;99.90;;;;;;4989770;28;20204;-74
2023/03/19 00:14:06;;;;;;;15.23;11.53;;;11.20;99.90;;;;;;4978149;28;21009;-74
2023/03/19 00:16:31;;;;;;;19.00;12.47;;;11.20;99.90;;;;;;4977894;28;20682;-74
2023/03/19 00:18:57;;;;;;;16.10;12.20;;;11.10;99.90;;;;;;4985099;28;20267;-74
2023/03/19 00:21:22;;;;;;;16.73;11.90;;;11.00;99.90;;;;;;4987623;28;20211;-73
2023/03/19 00:23:48;;;;;;;12.73;10.70;;;10.90;99.90;;;;;;4978780;28;20193;-74
2023/03/19 00:26:13;;;;;;;14.63;10.87;;;10.80;99.90;;;;;;4976853;28;20193;-74
2023/03/19 00:28:39;;;;;;;17.87;10.20;;;10.70;99.90;;;;;;4977932;28;20204;-72
2023/03/19 00:31:11;;;;;;;14.90;11.27;;;10.70;99.90;;;;;;4977693;28;20212;-71
2023/03/19 00:33:37;;;;;;;14.17;11.10;;;10.60;99.90;;;;;;4977754;28;20717;-74
2023/03/19 00:36:04;;;;;;;17.13;12.20;;;10.60;99.90;;;;;;4977316;28;20208;-72
2023/03/19 00:38:30;;;;;;;14.30;12.73;;;10.50;99.90;;;;;;4977403;28;20206;-72
2023/03/19 00:40:55;;;;;;;19.10;11.97;;;10.40;99.90;;;;;;4960575;28;20212;-71
2023/03/19 00:43:21;;;;;;;13.50;10.87;;;10.40;99.90;;;;;;4975734;28;20197;-71
2023/03/19 00:45:46;;;;;;;17.20;11.27;;;10.30;99.90;;;;;;4983436;28;20661;-72
2023/03/19 00:48:12;;;;;;;15.27;12.30;;;10.20;99.90;;;;;;4996712;28;20213;-73
2023/03/19 00:50:37;;;;;;;14.97;11.47;;;10.20;99.90;;;;;;4996687;28;20195;-73
2023/03/19 00:53:03;;;;;;;15.37;11.37;;;10.20;99.90;;;;;;4994013;28;20708;-72
2023/03/19 00:55:28;;;;;;;11.50;10.30;;;10.10;99.90;;;;;;4996320;28;20202;-72
2023/03/19 00:57:54;;;;;;;12.87;11.33;;;10.10;99.90;;;;;;4996491;28;20207;-71
2023/03/19 01:00:20;;;;;;;12.80;10.07;;;10.20;99.90;;;;;;4996766;28;20208;-71
2023/03/19 01:02:46;;;;;;;15.80;10.80;;;10.20;99.90;;;;;;4994735;28;20258;-71
2023/03/19 01:05:12;;;;;;;15.57;10.23;;;10.20;99.90;;;;;;4976892;28;20196;-71
2023/03/19 01:07:37;;;;;;;15.60;10.53;;;10.20;99.90;;;;;;4976979;28;20208;-71
2023/03/19 01:10:03;;;;;;;10.83;9.73;;;10.20;99.90;;;;;;4977221;28;20656;-71
2023/03/19 01:12:28;;;;;;;13.43;10.23;;;10.20;99.90;;;;;;4977209;28;20207;-72
2023/03/19 01:14:54;;;;;;;12.33;9.53;;;10.20;99.90;;;;;;4977063;28;20614;-71
2023/03/19 01:17:20;;;;;;;13.50;9.73;;;10.20;99.90;;;;;;4975006;28;20761;-73
2023/03/19 01:19:46;;;;;;;15.27;10.50;;;10.10;99.90;;;;;;4976776;28;20223;-73
2023/03/19 01:22:13;;;;;;;15.03;10.27;;;10.10;99.90;;;;;;4976760;28;20423;-72
2023/03/19 01:24:38;;;;;;;12.47;9.77;;;10.10;99.90;;;;;;4976773;28;20284;-71
2023/03/19 01:27:04;;;;;;;13.33;9.23;;;10.20;99.90;;;;;;4976983;28;20315;-73
2023/03/19 01:29:31;;;;;;;12.70;9.50;;;10.10;99.90;;;;;;4990169;28;20238;-73
2023/03/19 01:31:56;;;;;;;10.70;9.23;;;10.10;99.90;;;;;;4995293;28;20194;-72
2023/03/19 01:34:23;;;;;;;12.10;9.80;;;10.00;99.90;;;;;;4996037;28;20236;-72
2023/03/19 01:36:48;;;;;;;15.43;10.03;;;10.10;99.90;;;;;;4994971;28;20285;-73
2023/03/19 01:39:13;;;;;;;16.10;11.63;;;10.00;99.90;;;;;;4995465;28;20214;-73
2023/03/19 01:41:39;;;;;;;12.77;10.83;;;10.00;99.90;;;;;;4993529;28;20212;-73
2023/03/19 01:44:30;;;;;;;14.30;10.00;;;10.00;99.90;;;;;;4995732;28;20228;-73
2023/03/19 01:46:57;;;;;;;12.47;10.37;;;9.90;99.90;;;;;;4993414;28;20265;-73
2023/03/19 01:49:25;;;;;;;14.47;10.33;;;9.90;99.90;;;;;;4973702;28;20623;-74
2023/03/19 01:51:51;;;;;;;13.43;10.00;;;9.90;99.90;;;;;;4986867;28;20242;-74
2023/03/19 01:54:20;;;;;;;15.20;10.70;;;9.90;99.90;;;;;;4986544;28;20216;-73
2023/03/19 01:56:51;;;;;;;13.70;9.80;;;9.90;99.90;;;;;;4986144;28;20208;-74
2023/03/19 01:59:28;;;;;;;16.80;11.33;;;9.90;99.90;;;;;;4985754;28;20203;-75
2023/03/19 02:01:58;;;;;;;14.63;11.03;;;9.90;99.90;;;;;;4985683;28;20657;-73
2023/03/19 02:04:28;;;;;;;16.80;10.50;;;9.90;99.90;;;;;;4981241;28;20370;-73
2023/03/19 02:06:55;;;;;;;13.37;11.07;;;10.00;99.90;;;;;;4983640;28;20677;-73
2023/03/19 02:09:22;;;;;;;14.80;10.83;;;10.00;99.90;;;;;;4984700;28;20568;-75
2023/03/19 02:11:48;;;;;;;20.63;10.50;;;10.00;99.90;;;;;;4983631;28;20209;-74
2023/03/19 02:14:14;;;;;;;12.77;10.47;;;9.90;99.90;;;;;;4985002;28;20208;-75
2023/03/19 02:16:39;;;;;;;11.93;10.43;;;9.90;99.90;;;;;;4986398;28;20573;-72
2023/03/19 02:19:09;;;;;;;14.53;11.10;;;9.90;99.90;;;;;;4986256;28;20265;-72
2023/03/19 02:21:35;;;;;;;14.60;10.43;;;9.90;99.90;;;;;;4986318;28;20806;-73
2023/03/19 02:24:10;;;;;;;18.23;11.00;;;9.80;99.90;;;;;;4986358;28;20205;-75
2023/03/19 02:26:36;;;;;;;15.03;10.20;;;9.80;99.90;;;;;;4985549;28;20517;-74
2023/03/19 02:29:03;;;;;;;16.43;11.33;;;9.80;99.90;;;;;;4985707;28;20321;-73
2023/03/19 02:31:28;;;;;;;13.93;10.53;;;9.90;99.90;;;;;;4984398;28;20573;-73
2023/03/19 02:34:06;;;;;;;15.43;10.77;;;9.90;99.90;;;;;;4985680;28;20228;-73
2023/03/19 02:36:40;;;;;;;12.13;10.63;;;9.90;99.90;;;;;;4985461;28;20200;-72
2023/03/19 02:39:22;;;;;;;13.57;10.63;;;9.90;99.90;;;;;;4976280;28;20210;-72
2023/03/19 02:41:50;;;;;;;16.33;10.87;;;9.70;99.90;;;;;;4975871;28;20281;-73
2023/03/19 02:44:18;;;;;;;12.90;11.33;;;9.70;99.90;;;;;;4976193;28;20207;-73
2023/03/19 02:46:44;;;;;;;15.63;10.67;;;9.80;99.90;;;;;;4974254;28;20211;-72
2023/03/19 02:49:12;;;;;;;14.83;11.00;;;9.70;99.90;;;;;;4977368;28;20226;-73
2023/03/19 02:51:38;;;;;;;16.50;10.83;;;9.80;99.90;;;;;;4979606;28;20211;-73
2023/03/19 02:54:04;;;;;;;15.83;12.47;;;9.80;99.90;;;;;;4979869;28;20683;-73
2023/03/19 02:56:30;;;;;;;15.90;11.83;;;9.80;99.90;;;;;;4977476;28;20211;-72
2023/03/19 02:58:55;;;;;;;17.43;11.00;;;9.80;99.90;;;;;;4979882;28;20210;-72
2023/03/19 03:01:21;;;;;;;14.27;11.50;;;9.80;99.90;;;;;;4980877;28;20982;-72
2023/03/19 03:03:46;;;;;;;15.93;12.03;;;9.80;99.90;;;;;;4979730;28;20203;-72
2023/03/19 03:06:13;;;;;;;14.30;11.17;;;9.80;99.90;;;;;;4979291;28;20195;-73
2023/03/19 03:08:38;;;;;;;15.17;11.13;;;9.70;99.90;;;;;;4979351;28;20208;-73
2023/03/19 03:11:04;;;;;;;14.47;11.73;;;9.70;99.90;;;;;;4979008;28;20202;-73
2023/03/19 03:13:30;;;;;;;13.50;10.87;;;9.80;99.90;;;;;;4980145;28;20210;-75
2023/03/19 03:15:55;;;;;;;13.13;10.53;;;9.80;99.90;;;;;;4979689;28;20705;-76
2023/03/19 03:18:21;;;;;;;13.70;10.43;;;9.80;99.90;;;;;;4979440;28;20731;-78
2023/03/19 03:20:46;;;;;;;14.80;10.77;;;9.80;99.90;;;;;;4985719;28;20652;-76
2023/03/19 03:23:12;;;;;;;18.27;11.57;;;9.80;99.90;;;;;;4981002;28;20277;-75
2023/03/19 03:25:37;;;;;;;14.47;12.33;;;9.90;99.90;;;;;;4995796;28;20234;-74
2023/03/19 03:28:03;;;;;;;14.23;11.70;;;9.90;99.90;;;;;;4995903;28;20245;-77
2023/03/19 03:30:29;;;;;;;18.90;11.97;;;9.90;99.90;;;;;;4993797;28;20225;-75
2023/03/19 03:32:55;;;;;;;15.97;10.67;;;9.80;99.90;;;;;;4989793;28;20330;-76
2023/03/19 03:35:21;;;;;;;12.87;11.47;;;9.70;99.90;;;;;;4999460;28;20621;-77
2023/03/19 03:37:50;;;;;;;14.83;11.30;;;9.70;99.90;;;;;;4996580;28;20254;-76
2023/03/19 03:40:16;;;;;;;15.73;11.90;;;9.60;99.90;;;;;;4997553;28;20215;-75
2023/03/19 03:42:42;;;;;;;13.60;12.10;;;9.70;99.90;;;;;;4997644;28;20289;-75
2023/03/19 03:45:09;;;;;;;16.23;12.20;;;9.80;99.90;;;;;;4997057;28;20204;-75
2023/03/19 03:47:36;;;;;;;14.80;12.40;;;9.70;99.90;;;;;;4996641;28;20209;-75
2023/03/19 03:50:03;;;;;;;14.03;11.50;;;9.80;99.90;;;;;;4996822;28;20637;-75
2023/03/19 03:52:30;;;;;;;17.80;11.80;;;9.80;99.90;;;;;;4983530;28;20284;-76
2023/03/19 03:54:57;;;;;;;17.37;12.70;;;9.90;99.90;;;;;;4994019;28;20209;-76
2023/03/19 03:57:23;;;;;;;19.73;12.47;;;9.90;99.90;;;;;;4997949;28;20218;-76
2023/03/19 03:59:48;;;;;;;16.43;12.27;;;10.00;99.90;;;;;;4996719;28;20233;-75
2023/03/19 04:02:14;;;;;;;15.80;11.70;;;10.00;99.90;;;;;;4990504;28;20207;-74
2023/03/19 04:04:40;;;;;;;15.33;12.77;;;10.00;99.90;;;;;;4987453;28;20210;-75
2023/03/19 04:07:06;;;;;;;17.43;12.77;;;10.00;99.90;;;;;;4987620;28;20639;-75
2023/03/19 04:09:31;;;;;;;15.20;12.47;;;10.00;99.90;;;;;;4986111;28;20673;-76
2023/03/19 04:11:57;;;;;;;13.80;11.83;;;9.90;99.90;;;;;;4990099;28;20246;-76
2023/03/19 04:14:23;;;;;;;17.40;11.83;;;9.90;99.90;;;;;;4986499;28;20246;-75
2023/03/19 04:16:48;;;;;;;17.57;12.47;;;9.90;99.90;;;;;;4987012;28;21029;-75
2023/03/19 04:19:14;;;;;;;16.63;11.43;;;9.90;99.90;;;;;;4987021;28;20286;-77
2023/03/19 04:21:40;;;;;;;14.97;11.27;;;9.90;99.90;;;;;;4986467;28;20210;-76
2023/03/19 04:24:05;;;;;;;15.43;12.07;;;9.80;99.90;;;;;;4982973;28;20210;-74
2023/03/19 04:26:31;;;;;;;17.93;12.57;;;9.80;99.90;;;;;;4986867;28;20570;-73
2023/03/19 04:28:57;;;;;;;14.57;11.13;;;9.80;99.90;;;;;;4990939;28;20226;-73
2023/03/19 04:31:23;;;;;;;16.03;12.33;;;9.70;99.90;;;;;;4988126;28;20752;-75
2023/03/19 04:33:48;;;;;;;12.10;10.50;;;9.70;99.90;;;;;;4987963;28;20810;-70
2023/03/19 04:36:14;;;;;;;15.37;12.10;;;9.70;99.90;;;;;;4987703;28;20290;-74
2023/03/19 04:38:40;;;;;;;16.70;12.90;;;9.70;99.90;;;;;;4988006;28;20277;-74
2023/03/19 04:41:06;;;;;;;15.57;12.87;;;9.60;99.90;;;;;;4987015;28;20210;-72
2023/03/19 04:43:31;;;;;;;15.20;11.37;;;9.60;99.90;;;;;;4986400;28;20292;-72
2023/03/19 04:45:57;;;;;;;17.00;11.80;;;9.60;99.90;;;;;;4987876;28;20243;-74
2023/03/19 04:48:22;;;;;;;16.47;12.20;;;9.60;99.90;;;;;;4988400;28;20205;-74
2023/03/19 04:50:51;;;;;;;14.83;12.97;;;9.50;99.90;;;;;;4984238;28;20207;-76
2023/03/19 04:53:17;;;;;;;17.83;13.37;;;9.50;99.90;;;;;;4977660;28;20697;-75
2023/03/19 04:55:43;;;;;;;15.93;12.13;;;9.50;99.90;;;;;;4991627;28;20243;-74
2023/03/19 04:58:09;;;;;;;16.33;12.03;;;9.50;99.90;;;;;;4996644;28;20251;-75
2023/03/19 05:00:35;;;;;;;17.00;12.17;;;9.50;99.90;;;;;;4996723;28;20226;-76
2023/03/19 05:03:01;;;;;;;15.23;11.73;;;9.50;99.90;;;;;;4996348;28;20203;-75
2023/03/19 05:05:26;;;;;;;15.00;13.33;;;9.50;99.90;;;;;;4996417;28;20211;-77
2023/03/19 05:07:52;;;;;;;19.83;12.37;;;9.50;99.90;;;;;;4994440;28;20209;-75
2023/03/19 05:10:18;;;;;;;15.37;11.90;;;9.60;99.90;;;;;;4996434;28;20569;-74
2023/03/19 05:12:43;;;;;;;14.60;12.03;;;9.70;99.90;;;;;;4996166;28;20229;-75
2023/03/19 05:15:09;;;;;;;17.60;12.60;;;9.70;99.90;;;;;;4996410;28;20203;-76
2023/03/19 05:17:35;;;;;;;16.40;12.10;;;9.70;99.90;;;;;;4996224;28;20212;-75
2023/03/19 05:20:01;;;;;;;14.47;12.80;;;9.60;99.90;;;;;;4995924;28;20225;-76
2023/03/19 05:22:27;;;;;;;15.87;13.10;;;9.40;99.90;;;;;;4994795;28;20203;-75
2023/03/19 05:24:53;;;;;;;14.73;13.13;;;9.30;99.90;;;;;;4996038;28;20899;-76
2023/03/19 05:27:19;;;;;;;19.07;14.03;;;9.20;99.90;;;;;;4996665;28;20244;-76
2023/03/19 05:29:45;;;;;;;17.37;13.20;;;9.30;99.90;;;;;;4995844;28;20685;-76
2023/03/19 05:32:11;;;;;;;16.13;13.30;;;9.40;99.90;;;;;;4995868;28;20211;-76
2023/03/19 05:34:37;;;;;;;16.53;12.90;;;9.40;99.90;;;;;;4976526;28;20227;-75
2023/03/19 05:37:02;;;;;;;19.23;13.23;;;9.30;99.90;;;;;;4977037;28;20669;-74
2023/03/19 05:39:28;;;;;;;21.80;15.23;;;9.20;99.90;;;;;;4976855;28;20211;-75
2023/03/19 05:41:54;;;;;;;24.70;14.93;;;9.10;99.90;;;;;;4977285;28;20209;-74
2023/03/19 05:44:20;;;;;;;22.10;15.00;;;8.90;99.90;;;;;;4974771;28;20228;-74
2023/03/19 05:46:45;;;;;;;17.63;14.23;;;8.80;99.90;;;;;;4976703;28;20220;-75
2023/03/19 05:49:11;;;;;;;19.47;13.70;;;8.70;99.90;;;;;;4977161;28;20927;-76
2023/03/19 05:51:37;;;;;;;24.10;15.37;;;8.70;99.90;;;;;;4976910;28;20715;-76
2023/03/19 05:54:03;;;;;;;16.20;14.40;;;8.70;99.90;;;;;;4976852;28;20205;-75
2023/03/19 05:56:28;;;;;;;21.87;15.27;;;8.60;99.90;;;;;;4975000;28;20684;-75
2023/03/19 05:58:55;;;;;;;18.57;14.43;;;8.60;99.90;;;;;;4976687;28;20631;-76
2023/03/19 06:01:21;;;;;;;18.50;15.23;;;8.60;99.90;;;;;;4976954;28;20220;-76
2023/03/19 06:03:46;;;;;;;19.00;14.37;;;8.80;99.90;;;;;;4976644;28;20649;-76
2023/03/19 06:06:12;;;;;;;20.70;15.47;;;8.80;99.90;;;;;;4977143;28;20196;-75
2023/03/19 06:08:38;;;;;;;19.63;13.80;;;8.80;99.90;;;;;;4976435;28;20270;-76
2023/03/19 06:11:03;;;;;;;15.93;13.83;;;8.80;99.90;;;;;;4957285;28;20230;-76
2023/03/19 06:13:29;;;;;;;18.33;14.93;;;8.90;99.90;;;;;;4976744;28;20280;-77
2023/03/19 06:15:55;;;;;;;16.60;13.83;;;9.00;99.90;;;;;;4976530;28;20209;-77
2023/03/19 06:18:21;;;;;;;15.60;13.43;;;9.20;99.90;;;;;;4977464;28;20238;-75
2023/03/19 06:20:47;;;;;;;17.10;13.87;;;9.30;99.90;;;;;;4976079;28;20673;-76
2023/03/19 06:23:13;;;;;;;17.17;13.97;;;9.50;99.90;;;;;;4976691;28;20255;-76
2023/03/19 06:25:38;;;;;;;16.30;12.00;;;9.70;99.90;;;;;;4980012;28;20207;-76
2023/03/19 06:28:05;;;;;;;13.47;11.27;;;10.00;99.90;;;;;;4980850;28;20622;-77
2023/03/19 06:30:31;;;;;;;18.57;12.63;;;10.20;99.90;;;;;;4980120;28;20209;-76
2023/03/19 06:32:57;;;;;;;17.97;13.33;;;10.40;99.90;;;;;;4979034;28;20644;-76
2023/03/19 06:35:23;;;;;;;12.63;11.37;;;10.70;99.90;;;;;;4979730;28;20673;-76
2023/03/19 06:37:49;;;;;;;14.70;11.40;;;10.90;99.90;;;;;;4986272;28;20216;-76
2023/03/19 06:40:15;;;;;;;10.90;9.93;;;11.00;99.90;;;;;;4998925;28;20218;-75
2023/03/19 06:42:45;;;;;;;14.17;11.27;;;11.10;99.90;;;;;;4999174;28;20230;-78
2023/03/19 06:45:11;;;;;;;15.00;10.73;;;11.10;99.90;;;;;;4985143;28;20197;-74
2023/03/19 06:47:36;;;;;;;14.50;10.83;;;10.90;99.90;;;;;;4989003;28;20201;-73
2023/03/19 06:50:03;;;;;;;14.80;11.40;;;10.70;99.90;;;;;;4989625;28;20251;-75
2023/03/19 06:52:28;;;;;;;14.83;12.83;;;10.50;99.90;;;;;;4989861;28;20208;-75
2023/03/19 06:54:54;;;;;;;17.23;11.57;;;10.50;99.90;;;;;;4989441;28;20203;-76
2023/03/19 06:57:19;;;;;;;15.17;11.33;;;10.40;99.90;;;;;;4987252;28;20241;-73
2023/03/19 06:59:45;;;;;;;16.57;12.63;;;10.30;99.90;;;;;;4987658;28;20615;-77
2023/03/19 07:02:11;;;;;;;17.53;12.37;;;10.20;99.90;;;;;;4988459;28;20306;-76
2023/03/19 07:04:36;;;;;;;17.23;12.90;;;10.10;99.90;;;;;;4988051;28;20208;-75
2023/03/19 07:07:04;;;;;;;14.77;12.23;;;10.00;99.90;;;;;;4986675;28;20199;-76
2023/03/19 07:09:30;;;;;;;14.03;11.70;;;9.90;99.90;;;;;;4988793;28;20188;-76
2023/03/19 07:11:55;;;;;;;18.03;13.63;;;9.70;99.90;;;;;;4988803;28;20571;-76
2023/03/19 07:14:22;;;;;;;13.83;12.43;;;9.70;99.90;;;;;;4988347;28;20343;-76
2023/03/19 07:16:47;;;;;;;14.83;12.53;;;9.70;99.90;;;;;;4987873;28;20676;-75
2023/03/19 07:19:13;;;;;;;16.53;12.73;;;9.70;99.90;;;;;;4985983;28;20214;-75
2023/03/19 07:21:38;;;;;;;19.73;14.57;;;9.60;99.90;;;;;;4988907;28;20980;-76
2023/03/19 07:24:04;;;;;;;16.93;13.67;;;9.40;99.90;;;;;;4989896;28;20997;-73
2023/03/19 07:26:30;;;;;;;15.03;13.27;;;9.40;99.90;;;;;;4989604;28;20205;-74
2023/03/19 07:28:56;;;;;;;17.87;13.23;;;9.40;99.90;;;;;;4988045;28;20197;-73
2023/03/19 07:31:21;;;;;;;20.07;13.43;;;9.50;99.90;;;;;;4986985;28;20214;-76
2023/03/19 07:33:47;;;;;;;15.47;13.80;;;9.50;99.90;;;;;;4987769;28;20897;-74
2023/03/19 07:36:12;;;;;;;17.83;14.67;;;9.40;99.90;;;;;;4986926;28;20301;-77
2023/03/19 07:38:38;;;;;;;16.57;14.20;;;9.50;99.90;;;;;;4987871;28;20216;-76
2023/03/19 07:41:04;;;;;;;14.67;13.17;;;9.50;99.90;;;;;;4987402;28;20587;-74
2023/03/19 07:43:30;;;;;;;17.10;15.30;;;9.50;99.90;;;;;;4987851;28;20202;-76
2023/03/19 07:45:55;;;;;;;18.07;13.87;;;9.60;99.90;;;;;;4985630;28;20655;-76
2023/03/19 07:48:21;;;;;;;15.47;13.47;;;9.70;99.90;;;;;;4988575;28;20286;-75
2023/03/19 07:50:50;;;;;;;18.33;13.80;;;9.70;99.90;;;;;;4988577;28;20204;-75
2023/03/19 07:53:15;;;;;;;20.00;15.07;;;9.80;99.90;;;;;;4987813;28;20291;-74
2023/03/19 07:55:41;;;;;;;19.40;15.37;;;9.80;99.90;;;;;;4985630;28;20206;-75
2023/03/19 07:58:06;;;;;;;17.63;14.27;;;9.90;99.90;;;;;;4987652;28;20268;-75
2023/03/19 08:00:32;;;;;;;19.67;14.97;;;10.00;99.90;;;;;;4987894;28;20218;-74
2023/03/19 08:02:57;;;;;;;16.70;14.23;;;9.90;99.90;;;;;;4987537;28;20207;-74
2023/03/19 08:05:23;;;;;;;17.77;13.77;;;10.00;99.90;;;;;;4987479;28;20727;-73
2023/03/19 08:07:50;;;;;;;21.90;14.47;;;10.00;99.90;;;;;;4985690;28;20216;-73
2023/03/19 08:10:16;;;;;;;16.23;14.43;;;10.00;99.90;;;;;;4987333;28;20202;-73
2023/03/19 08:12:41;;;;;;;18.77;15.00;;;10.00;99.90;;;;;;4987740;28;21828;-73
2023/03/19 08:15:09;;;;;;;16.83;13.90;;;10.10;99.90;;;;;;4987947;28;20583;-73
2023/03/19 08:17:37;;;;;;;14.97;13.37;;;10.10;99.90;;;;;;4987817;28;20229;-73
2023/03/19 08:20:08;;;;;;;15.13;13.53;;;10.00;99.90;;;;;;4986564;28;20261;-74
2023/03/19 08:22:35;;;;;;;18.80;15.40;;;10.00;99.90;;;;;;4987190;28;20251;-74
2023/03/19 08:25:00;;;;;;;20.77;15.27;;;10.00;99.90;;;;;;4986979;28;20286;-75
2023/03/19 08:27:27;;;;;;;16.27;14.57;;;10.00;99.90;;;;;;4986761;28;20239;-76
2023/03/19 08:29:52;;;;;;;19.60;14.87;;;10.00;99.90;;;;;;4985398;28;20220;-76
2023/03/19 08:32:18;;;;;;;22.03;16.17;;;10.00;99.90;;;;;;4992490;28;20693;-75
2023/03/19 08:34:43;;;;;;;17.50;15.07;;;9.90;99.90;;;;;;4987060;28;20279;-77
2023/03/19 08:37:09;;;;;;;18.10;14.87;;;9.80;99.90;;;;;;4987709;28;20248;-76
2023/03/19 08:39:34;;;;;;;20.00;16.47;;;9.80;99.90;;;;;;4987454;28;20203;-76
2023/03/19 08:42:00;;;;;;;18.43;15.93;;;9.70;99.90;;;;;;4985028;28;20210;-73
2023/03/19 08:44:25;;;;;;;18.43;16.33;;;9.70;99.90;;;;;;4986506;28;20202;-74
2023/03/19 08:46:51;;;;;;;18.13;16.20;;;9.70;99.90;;;;;;4986350;28;20198;-73
2023/03/19 08:49:16;;;;;;;17.17;15.33;;;9.80;99.90;;;;;;4988303;28;20737;-76
2023/03/19 08:51:42;;;;;;;20.83;16.17;;;9.90;99.90;;;;;;4986312;28;20202;-74
2023/03/19 08:54:10;;;;;;;21.07;16.63;;;9.90;99.90;;;;;;4988028;28;20195;-79
2023/03/19 08:56:35;;;;;;;21.73;16.07;;;10.00;99.90;;;;;;4981697;28;20671;-78
2023/03/19 08:59:01;;;;;;;16.73;14.37;;;10.00;99.90;;;;;;4985489;28;20229;-78
2023/03/19 09:01:26;;;;;;;21.60;15.30;;;10.10;99.90;;;;;;4985564;28;20276;-76
2023/03/19 09:03:52;;;;;;;18.37;15.03;;;10.10;99.90;;;;;;4985994;28;20258;-74
2023/03/19 09:06:17;;;;;;;17.30;14.73;;;10.10;99.90;;;;;;4986388;28;20205;-76
2023/03/19 09:08:43;;;;;;;18.37;14.77;;;10.10;99.90;;;;;;4986698;28;20252;-77
2023/03/19 09:11:09;;;;;;;20.60;15.80;;;10.20;99.90;;;;;;4986867;28;20201;-69
2023/03/19 09:13:36;;;;;;;16.37;14.67;;;10.20;99.90;;;;;;4985389;28;20272;-69
2023/03/19 09:16:02;;;;;;;20.67;15.03;;;10.20;99.90;;;;;;4984160;28;20211;-68
2023/03/19 09:18:28;;;;;;;16.93;13.67;;;10.20;99.90;;;;;;4986995;28;20255;-68
2023/03/19 09:20:53;;;;;;;16.47;13.70;;;10.30;99.90;;;;;;4986059;28;20778;-68
2023/03/19 09:23:20;;;;;;;18.50;15.10;;;10.30;99.90;;;;;;4986771;28;20401;-72
2023/03/19 09:25:46;;;;;;;18.43;14.20;;;10.30;99.90;;;;;;4986243;28;20731;-72
2023/03/19 09:28:11;;;;;;;16.13;14.00;;;10.50;99.90;;;;;;4985934;28;20200;-72
2023/03/19 09:30:38;;;;;;;16.27;14.63;;;10.70;99.90;;;;;;4987213;28;20928;-72
2023/03/19 09:33:04;;;;;;;16.30;14.03;;;10.80;99.90;;;;;;4984858;28;20278;-72
2023/03/19 09:35:31;;;;;;;16.00;14.00;;;11.10;99.90;;;;;;4987798;28;20694;-73
2023/03/19 09:37:57;;;;;;;16.30;12.97;;;11.20;99.90;;;;;;4986049;28;20756;-72
2023/03/19 09:40:32;;;;;;;15.50;12.43;;;11.40;99.90;;;;;;4988098;28;20229;-74
2023/03/19 09:43:16;;;;;;;15.03;12.00;;;11.50;99.90;;;;;;4983853;28;21021;-72
2023/03/19 09:45:43;;;;;;;14.33;12.73;;;11.50;99.90;;;;;;4987040;28;20234;-71
2023/03/19 09:48:17;;;;;;;16.03;13.20;;;11.60;99.90;;;;;;4981909;28;20203;-72
2023/03/19 09:50:44;;;;;;;17.30;13.20;;;11.80;99.90;;;;;;4981543;28;20306;-70
2023/03/19 09:53:43;;;;;;;12.77;11.50;;;11.90;99.90;;;;;;4986362;28;20664;-72
2023/03/19 09:56:13;;;;;;;13.53;12.10;;;12.20;99.90;;;;;;4977018;28;20223;-76
2023/03/19 09:58:39;;;;;;;13.97;11.13;;;12.40;99.90;;;;;;4971892;28;20289;-74
2023/03/19 10:01:05;;;;;;;15.00;11.80;;;12.50;99.90;;;;;;4993613;28;20350;-76
2023/03/19 10:03:49;;;;;;;13.13;11.40;;;12.50;99.90;;;;;;4994080;28;20196;-77
2023/03/19 10:06:28;;;;;;;12.67;11.47;;;12.60;99.90;;;;;;4996523;28;20232;-80
2023/03/19 10:09:20;;;;;;;12.80;11.40;;;12.60;99.90;;;;;;4980274;28;20208;-78
2023/03/19 10:12:36;;;;;;;12.90;10.57;;;12.50;99.90;;;;;;4996705;28;20196;-76
2023/03/19 10:15:14;;;;;;;11.60;10.50;;;12.60;99.90;;;;;;4956675;28;20234;-75
2023/03/19 10:17:49;;;;;;;11.57;10.20;;;12.70;99.90;;;;;;4999961;28;20203;-75
2023/03/19 10:20:45;;;;;;;11.70;10.50;;;12.80;99.90;;;;;;4999585;28;20269;-75
2023/03/19 10:23:30;;;;;;;12.13;10.83;;;12.80;99.90;;;;;;4999944;28;20610;-77
2023/03/19 10:25:58;;;;;;;12.97;11.27;;;12.70;99.90;;;;;;4994672;28;20271;-81
2023/03/19 10:28:27;;;;;;;12.33;9.80;;;12.70;99.90;;;;;;4993198;28;20226;-78
2023/03/19 10:31:03;;;;;;;15.87;11.07;;;12.90;99.90;;;;;;4987485;28;20220;-74
2023/03/19 10:33:49;;;;;;;13.60;10.73;;;13.00;99.90;;;;;;4990678;28;20732;-78
2023/03/19 10:36:20;;;;;;;13.63;10.13;;;13.10;99.90;;;;;;4986891;28;20208;-78
2023/03/19 10:38:45;;;;;;;13.97;11.43;;;13.20;99.90;;;;;;4979864;28;20208;-74
2023/03/19 10:41:22;;;;;;;12.50;11.23;;;13.20;99.90;;;;;;4991824;28;20205;-78
2023/03/19 10:43:58;;;;;;;14.10;10.63;;;13.30;99.90;;;;;;4990199;28;20245;-73
2023/03/19 10:46:24;;;;;;;12.23;11.03;;;13.40;99.90;;;;;;4993327;28;20198;-77
2023/03/19 10:48:50;;;;;;;13.10;9.87;;;13.30;99.90;;;;;;4993413;28;20196;-79
2023/03/19 10:51:22;;;;;;;13.43;10.83;;;13.30;99.90;;;;;;4996253;28;20200;-73
2023/03/19 10:53:50;;;;;;;13.77;11.93;;;13.40;99.90;;;;;;4992647;28;20208;-74
2023/03/19 10:56:22;;;;;;;13.30;11.90;;;13.50;99.90;;;;;;4999074;28;20338;-72
2023/03/19 10:59:00;;;;;;;9.20;8.30;;;13.60;99.90;;;;;;4997933;28;20242;-65
2023/03/19 11:01:31;;;;;;;11.77;9.53;;;13.50;99.90;;;;;;4998158;28;20223;-62
2023/03/19 11:03:58;;;;;;;10.67;9.40;;;13.40;99.90;;;;;;4998362;28;20303;-63
2023/03/19 11:06:25;;;;;;;11.00;9.70;;;13.30;99.90;;;;;;4996683;28;20196;-63
2023/03/19 11:09:11;;;;;;;9.83;8.83;;;13.20;99.90;;;;;;4998782;28;20232;-63
2023/03/19 11:11:52;;;;;;;14.03;9.67;;;13.30;99.90;;;;;;4998251;28;20223;-63
2023/03/19 11:14:33;;;;;;;11.10;9.33;;;13.50;99.90;;;;;;4998690;28;20298;-63
2023/03/19 11:17:26;;;;;;;11.23;9.60;;;13.60;99.90;;;;;;4993528;28;20207;-70
2023/03/19 11:19:57;;;;;;;9.13;8.33;;;13.90;99.90;;;;;;4987068;28;20561;-71
2023/03/19 11:22:28;;;;;;;13.33;8.67;;;14.10;99.90;;;;;;4988191;28;20349;-70
2023/03/19 11:25:20;;;;;;;8.80;7.90;;;14.10;99.90;;;;;;4988242;28;20212;-70
2023/03/19 11:28:06;;;;;;;13.07;9.63;;;14.10;99.90;;;;;;4986853;28;20223;-72
2023/03/19 11:31:09;;;;;;;8.93;7.90;;;14.20;99.90;;;;;;4990913;28;20710;-69
2023/03/19 11:33:57;;;;;;;10.97;8.20;;;14.20;99.90;;;;;;4986128;28;20263;-69
2023/03/19 11:37:01;;;;;;;9.07;7.73;;;14.30;99.90;;;;;;4987989;28;20360;-69
2023/03/19 11:39:44;;;;;;;9.23;7.57;;;14.30;99.90;;;;;;4958636;28;20282;-70
2023/03/19 11:42:56;;;;;;;13.50;8.17;;;14.40;99.90;;;;;;4986600;28;20489;-70
2023/03/19 11:45:36;;;;;;;10.67;7.50;;;14.50;99.90;;;;;;4987912;28;20204;-69
2023/03/19 11:48:33;;;;;;;8.43;7.43;;;14.70;99.90;;;;;;4991646;28;20694;-70
2023/03/19 11:51:17;;;;;;;11.03;7.20;;;14.70;99.90;;;;;;4986253;28;20866;-70
2023/03/19 11:54:09;;;;;;;8.30;6.33;;;14.90;99.90;;;;;;4981345;28;20212;-71
2023/03/19 11:56:46;;;;;;;9.23;6.57;;;15.00;99.90;;;;;;4986000;28;20709;-71
2023/03/19 11:59:12;;;;;;;7.07;6.37;;;14.80;99.90;;;;;;4986633;28;20206;-72
2023/03/19 12:02:06;;;;;;;7.70;6.50;;;14.70;99.90;;;;;;4987392;28;20586;-72
2023/03/19 12:04:59;;;;;;;7.90;5.93;;;14.80;99.90;;;;;;4987470;28;20287;-71
2023/03/19 12:07:34;;;;;;;9.47;6.63;;;14.90;99.90;;;;;;4987288;28;20204;-71
2023/03/19 12:10:41;;;;;;;6.70;6.10;;;15.00;99.90;;;;;;4987477;28;20215;-70
2023/03/19 12:13:28;;;;;;;7.53;6.43;;;15.10;99.90;;;;;;4988075;28;20197;-71
2023/03/19 12:16:15;;;;;;;8.43;7.60;;;15.10;99.90;;;;;;4987965;28;20211;-70
2023/03/19 12:19:10;;;;;;;8.50;6.27;;;15.10;99.90;;;;;;4988311;28;20228;-70
2023/03/19 12:21:40;;;;;;;8.17;5.93;;;15.20;99.90;;;;;;4985495;28;20223;-70
2023/03/19 12:24:23;;;;;;;7.80;6.57;;;15.50;99.90;;;;;;4987894;28;20200;-71
2023/03/19 12:27:13;;;;;;;7.93;6.67;;;15.80;99.90;;;;;;4987561;28;20205;-70
2023/03/19 12:30:21;;;;;;;7.50;6.60;;;16.10;99.90;;;;;;4987492;28;20205;-71
2023/03/19 12:33:27;;;;;;;8.03;5.93;;;16.40;99.90;;;;;;4985364;28;20231;-71
2023/03/19 12:35:55;;;;;;;7.67;5.87;;;16.40;99.90;;;;;;4987498;28;20343;-70
2023/03/19 12:38:40;;;;;;;7.13;6.53;;;16.40;99.90;;;;;;4987777;28;20594;-70
2023/03/19 12:41:10;;;;;;;7.23;6.47;;;16.90;99.90;;;;;;4987248;28;20694;-71
2023/03/19 12:43:48;;;;;;;8.10;6.20;;;17.10;99.90;;;;;;4987686;28;20197;-71
2023/03/19 12:46:22;;;;;;;7.13;5.87;;;17.40;99.90;;;;;;4987189;28;20752;-70